createdAt,value
2023-05-19T00:02:27.631Z,3.57
2023-05-19T00:05:03.047Z,3.50
2023-05-19T00:07:39.184Z,3.33
2023-05-19T00:10:15.604Z,3.77
2023-05-19T00:12:51.881Z,4.33
2023-05-19T00:15:28.334Z,4.70
2023-05-19T00:18:02.074Z,4.20
2023-05-19T00:20:35.467Z,3.93
2023-05-19T00:23:08.769Z,3.93
2023-05-19T00:25:42.690Z,4.07
2023-05-19T00:28:16.133Z,3.60
2023-05-19T00:30:49.710Z,4.00
2023-05-19T00:33:23.140Z,3.80
2023-05-19T00:35:56.452Z,3.70
2023-05-19T00:38:29.732Z,4.00
2023-05-19T00:41:04.317Z,3.70
2023-05-19T00:43:37.676Z,4.03
2023-05-19T00:46:11.778Z,3.40
2023-05-19T00:48:45.644Z,4.47
2023-05-19T00:51:20.763Z,3.60
2023-05-19T00:53:54.205Z,3.63
2023-05-19T00:56:27.901Z,3.57
2023-05-19T00:59:01.819Z,4.10
2023-05-19T01:01:35.243Z,4.17
2023-05-19T01:04:10.528Z,4.30
2023-05-19T01:06:44.686Z,4.30
2023-05-19T01:09:18.409Z,4.60
2023-05-19T01:11:51.429Z,4.33
2023-05-19T01:14:25.855Z,4.73
2023-05-19T01:17:09.903Z,4.20
2023-05-19T01:20:06.577Z,4.47
2023-05-19T01:23:28.803Z,4.27
2023-05-19T01:26:27.957Z,3.83
2023-05-19T01:29:29.090Z,4.00
2023-05-19T01:32:05.857Z,4.50
2023-05-19T01:34:43.639Z,4.37
2023-05-19T01:37:18.736Z,4.00
2023-05-19T01:39:53.557Z,4.07
2023-05-19T01:42:28.297Z,3.60
2023-05-19T01:45:02.644Z,4.47
2023-05-19T01:47:38.197Z,3.83
2023-05-19T01:50:14.553Z,4.53
2023-05-19T01:52:48.067Z,4.00
2023-05-19T01:55:23.244Z,4.27
2023-05-19T01:58:14.578Z,4.50
2023-05-19T02:01:04.866Z,4.57
2023-05-19T02:04:04.980Z,4.37
2023-05-19T02:06:47.290Z,3.90
2023-05-19T02:09:24.651Z,4.10
2023-05-19T02:12:05.461Z,4.00
2023-05-19T02:14:46.394Z,3.87
2023-05-19T02:17:21.513Z,4.50
2023-05-19T02:19:54.565Z,3.80
2023-05-19T02:22:27.964Z,4.07
2023-05-19T02:25:01.417Z,3.97
2023-05-19T02:27:35.064Z,3.73
2023-05-19T02:30:10.254Z,3.80
2023-05-19T02:32:46.867Z,4.03
2023-05-19T02:35:21.027Z,3.93
2023-05-19T02:37:55.105Z,4.33
2023-05-19T02:40:28.586Z,3.63
2023-05-19T02:43:01.979Z,3.63
2023-05-19T02:45:35.246Z,4.20
2023-05-19T02:48:09.756Z,4.23
2023-05-19T02:50:43.007Z,4.47
2023-05-19T02:53:16.302Z,3.90
2023-05-19T02:55:49.693Z,4.10
2023-05-19T02:58:22.984Z,4.10
2023-05-19T03:00:56.275Z,4.03
2023-05-19T03:03:29.683Z,4.10
2023-05-19T03:06:03.074Z,4.63
2023-05-19T03:08:36.628Z,4.07
2023-05-19T03:11:10.325Z,4.20
2023-05-19T03:13:43.587Z,4.00
2023-05-19T03:16:16.888Z,4.10
2023-05-19T03:18:51.260Z,4.40
2023-05-19T03:21:24.625Z,4.50
2023-05-19T03:23:58.045Z,4.60
2023-05-19T03:26:31.512Z,4.13
2023-05-19T03:29:05.103Z,4.43
2023-05-19T03:31:38.406Z,4.37
2023-05-19T03:34:11.658Z,4.50
2023-05-19T03:36:45.059Z,4.20
2023-05-19T03:39:18.714Z,4.33
2023-05-19T03:41:52.019Z,4.60
2023-05-19T03:44:25.279Z,4.50
2023-05-19T03:46:58.615Z,5.07
2023-05-19T03:49:31.959Z,4.07
2023-05-19T03:52:05.291Z,4.47
2023-05-19T03:54:39.945Z,4.33
2023-05-19T03:57:14.993Z,4.37
2023-05-19T03:59:48.514Z,4.20
2023-05-19T04:02:21.940Z,4.30
2023-05-19T04:04:55.983Z,4.53
2023-05-19T04:07:29.374Z,4.67
2023-05-19T04:10:03.424Z,4.20
2023-05-19T04:12:37.132Z,4.30
2023-05-19T04:15:14.490Z,4.57
2023-05-19T04:17:48.545Z,4.13
2023-05-19T04:20:22.080Z,4.63
2023-05-19T04:22:55.096Z,4.60
2023-05-19T04:25:28.429Z,4.40
2023-05-19T04:28:03.002Z,5.00
2023-05-19T04:30:37.016Z,4.17
2023-05-19T04:33:10.816Z,4.47
2023-05-19T04:35:44.389Z,4.67
2023-05-19T04:38:18.881Z,4.50
2023-05-19T04:40:52.473Z,4.67
2023-05-19T04:43:27.265Z,4.80
2023-05-19T04:46:02.034Z,4.73
2023-05-19T04:48:35.399Z,4.60
2023-05-19T04:51:09.298Z,4.50
2023-05-19T04:53:42.290Z,4.17
2023-05-19T04:56:15.724Z,4.53
2023-05-19T04:58:49.402Z,4.50
2023-05-19T05:01:25.884Z,4.93
2023-05-19T05:04:02.238Z,4.40
2023-05-19T05:06:38.308Z,5.37
2023-05-19T05:09:11.509Z,4.87
2023-05-19T05:11:47.978Z,4.10
2023-05-19T05:14:23.438Z,5.00
2023-05-19T05:16:57.913Z,4.30
2023-05-19T05:19:33.549Z,4.60
2023-05-19T05:22:08.729Z,4.43
2023-05-19T05:24:42.399Z,4.63
2023-05-19T05:27:15.731Z,4.57
2023-05-19T05:29:49.805Z,4.93
2023-05-19T05:32:25.729Z,4.30
2023-05-19T05:34:59.460Z,4.43
2023-05-19T05:37:33.380Z,4.70
2023-05-19T05:40:08.011Z,4.77
2023-05-19T05:42:41.355Z,4.77
2023-05-19T05:45:16.760Z,4.30
2023-05-19T05:47:53.395Z,4.07
2023-05-19T05:50:29.280Z,4.13
2023-05-19T05:53:04.637Z,4.50
2023-05-19T05:55:39.956Z,4.53
2023-05-19T05:58:15.514Z,4.00
2023-05-19T06:00:49.263Z,3.90
2023-05-19T06:03:24.404Z,3.90
2023-05-19T06:05:58.146Z,4.73
2023-05-19T06:08:31.837Z,3.73
2023-05-19T06:11:08.382Z,3.83
2023-05-19T06:13:42.382Z,4.03
2023-05-19T06:16:15.721Z,3.80
2023-05-19T06:18:49.267Z,4.60
2023-05-19T06:21:22.769Z,4.20
2023-05-19T06:23:56.356Z,3.63
2023-05-19T06:26:29.455Z,3.87
2023-05-19T06:29:02.767Z,4.00
2023-05-19T06:31:36.064Z,3.83
2023-05-19T06:34:12.270Z,4.37
2023-05-19T06:36:45.964Z,3.83
2023-05-19T06:39:19.254Z,3.63
2023-05-19T06:41:52.544Z,3.70
2023-05-19T06:44:26.015Z,3.73
2023-05-19T06:46:59.301Z,3.77
2023-05-19T06:49:32.918Z,3.87
2023-05-19T06:52:06.653Z,3.60
2023-05-19T06:54:39.964Z,3.53
2023-05-19T06:57:13.077Z,4.23
2023-05-19T06:59:46.707Z,3.60
2023-05-19T07:02:19.999Z,4.07
2023-05-19T07:04:53.991Z,3.77
2023-05-19T07:07:27.733Z,3.93
2023-05-19T07:10:01.308Z,3.97
2023-05-19T07:12:34.475Z,3.83
2023-05-19T07:15:09.963Z,4.13
2023-05-19T07:17:43.433Z,3.83
2023-05-19T07:20:17.940Z,4.00
2023-05-19T07:22:51.228Z,3.37
2023-05-19T07:25:26.048Z,3.20
2023-05-19T07:27:59.059Z,3.43
2023-05-19T07:30:33.615Z,3.40
2023-05-19T07:33:08.248Z,3.43
2023-05-19T07:35:41.704Z,3.80
2023-05-19T07:38:15.012Z,3.70
2023-05-19T07:40:48.283Z,3.47
2023-05-19T07:43:21.883Z,3.57
2023-05-19T07:45:56.393Z,3.53
2023-05-19T07:48:30.248Z,3.70
2023-05-19T07:51:03.538Z,4.20
2023-05-19T07:53:36.883Z,3.40
2023-05-19T07:56:10.649Z,3.47
2023-05-19T07:58:43.660Z,3.40
2023-05-19T08:01:17.037Z,3.17
2023-05-19T08:03:50.475Z,3.27
2023-05-19T08:06:25.204Z,3.30
2023-05-19T08:08:58.851Z,3.80
2023-05-19T08:11:32.169Z,3.33
2023-05-19T08:14:05.232Z,3.20
2023-05-19T08:16:38.730Z,3.47
2023-05-19T08:19:12.484Z,3.37
2023-05-19T08:21:45.817Z,3.67
2023-05-19T08:24:19.182Z,3.30
2023-05-19T08:26:52.451Z,2.77
2023-05-19T08:29:25.582Z,3.43
2023-05-19T08:31:59.402Z,3.03
2023-05-19T08:34:33.231Z,3.30
2023-05-19T08:37:07.033Z,3.10
2023-05-19T08:39:40.739Z,3.70
2023-05-19T08:42:14.242Z,3.00
2023-05-19T08:44:47.495Z,3.40
2023-05-19T08:47:20.911Z,3.03
2023-05-19T08:50:04.959Z,2.90
2023-05-19T08:52:57.807Z,3.10
2023-05-19T08:55:42.907Z,3.20
2023-05-19T08:58:20.336Z,2.90
2023-05-19T09:00:54.665Z,3.70
2023-05-19T09:03:29.369Z,2.63
2023-05-19T09:06:05.095Z,3.07
2023-05-19T09:08:38.461Z,3.30
2023-05-19T09:11:13.130Z,3.20
2023-05-19T09:13:46.987Z,2.70
2023-05-19T09:16:20.902Z,2.73
2023-05-19T09:19:01.623Z,2.50
2023-05-19T09:21:37.440Z,3.43
2023-05-19T09:24:12.812Z,2.83
2023-05-19T09:26:46.705Z,3.10
2023-05-19T09:29:21.326Z,3.10
2023-05-19T09:32:00.619Z,4.07
2023-05-19T09:34:34.510Z,3.37
2023-05-19T09:37:08.091Z,2.93
2023-05-19T09:39:41.745Z,3.30
2023-05-19T09:42:17.097Z,2.70
2023-05-19T09:44:51.585Z,6.63
2023-05-19T09:47:25.476Z,3.00
2023-05-19T09:49:59.844Z,3.43
2023-05-19T09:52:35.781Z,2.70
2023-05-19T09:55:12.940Z,3.27
2023-05-19T09:57:48.000Z,3.03
2023-05-19T10:00:24.562Z,2.80
2023-05-19T10:02:59.544Z,2.70
2023-05-19T10:05:35.479Z,2.63
2023-05-19T10:08:12.958Z,2.43
2023-05-19T10:10:49.318Z,4.30
2023-05-19T10:13:25.051Z,3.20
2023-05-19T10:16:00.299Z,3.57
2023-05-19T10:18:39.111Z,2.67
2023-05-19T10:21:14.898Z,2.80
2023-05-19T10:23:48.186Z,2.60
2023-05-19T10:26:23.663Z,2.43
2023-05-19T10:28:59.549Z,1.90
2023-05-19T10:31:35.070Z,2.30
2023-05-19T10:34:34.469Z,2.03
2023-05-19T10:37:20.583Z,2.20
2023-05-19T10:39:56.585Z,2.23
2023-05-19T10:42:46.825Z,2.00
2023-05-19T10:45:28.113Z,2.10
2023-05-19T10:48:01.920Z,2.00
2023-05-19T10:50:44.335Z,3.10
2023-05-19T10:53:23.099Z,2.93
2023-05-19T10:56:03.467Z,2.10
2023-05-19T10:58:59.014Z,2.50
2023-05-19T11:01:39.448Z,2.07
2023-05-19T11:04:15.939Z,2.23
2023-05-19T11:06:57.811Z,2.37
2023-05-19T11:09:40.053Z,2.20
2023-05-19T11:12:12.888Z,2.10
2023-05-19T11:14:46.275Z,1.90
2023-05-19T11:17:23.717Z,2.63
2023-05-19T11:20:04.582Z,1.80
2023-05-19T11:22:41.072Z,2.13
2023-05-19T11:25:19.128Z,2.00
2023-05-19T11:27:53.569Z,1.97
2023-05-19T11:30:27.327Z,3.17
2023-05-19T11:33:01.051Z,2.00
2023-05-19T11:35:37.440Z,1.93
2023-05-19T11:38:11.992Z,1.93
2023-05-19T11:40:49.707Z,2.07
2023-05-19T11:43:26.511Z,2.00
2023-05-19T11:46:00.866Z,1.70
2023-05-19T11:48:35.931Z,1.90
2023-05-19T11:51:11.648Z,1.90
2023-05-19T11:53:46.100Z,1.73
2023-05-19T11:56:19.356Z,2.10
2023-05-19T11:58:55.983Z,1.70
2023-05-19T12:01:31.902Z,1.77
2023-05-19T12:04:09.053Z,4.10
2023-05-19T12:06:42.397Z,2.00
2023-05-19T12:09:16.264Z,1.73
2023-05-19T12:11:50.729Z,3.00
2023-05-19T12:14:24.492Z,1.77
2023-05-19T12:16:58.197Z,1.83
2023-05-19T12:19:31.786Z,2.10
2023-05-19T12:22:06.199Z,1.90
2023-05-19T12:24:40.109Z,2.00
2023-05-19T12:27:19.386Z,1.87
2023-05-19T12:29:58.165Z,1.80
2023-05-19T12:32:34.461Z,1.80
2023-05-19T12:35:10.056Z,1.77
2023-05-19T12:37:49.095Z,1.93
2023-05-19T12:40:22.567Z,1.70
2023-05-19T12:42:59.763Z,1.93
2023-05-19T12:45:37.479Z,1.80
2023-05-19T12:48:17.019Z,1.90
2023-05-19T12:50:52.808Z,1.80
2023-05-19T12:53:29.581Z,1.70
2023-05-19T12:56:10.993Z,2.87
2023-05-19T12:58:45.891Z,1.87
2023-05-19T13:01:24.114Z,1.90
2023-05-19T13:03:58.029Z,2.67
2023-05-19T13:06:32.769Z,2.70
2023-05-19T13:09:07.182Z,1.80
2023-05-19T13:11:40.587Z,1.87
2023-05-19T13:14:17.132Z,2.20
2023-05-19T13:16:51.259Z,2.83
2023-05-19T13:19:26.205Z,2.20
2023-05-19T13:21:59.839Z,1.90
2023-05-19T13:24:33.410Z,1.73
2023-05-19T13:27:06.678Z,1.70
2023-05-19T13:29:41.443Z,1.90
2023-05-19T13:32:14.854Z,6.27
2023-05-19T13:34:48.940Z,2.30
2023-05-19T13:37:22.776Z,2.20
2023-05-19T13:39:57.652Z,2.40
2023-05-19T13:42:30.945Z,2.92
2023-05-19T13:45:04.437Z,1.83
2023-05-19T13:47:38.218Z,1.80
2023-05-19T13:50:13.759Z,1.80
2023-05-19T13:52:47.452Z,1.73
2023-05-19T13:55:21.391Z,1.90
2023-05-19T13:57:54.436Z,2.10
2023-05-19T14:00:28.433Z,1.97
2023-05-19T14:03:01.974Z,2.97
2023-05-19T14:05:35.811Z,1.90
2023-05-19T14:08:11.323Z,2.60
2023-05-19T14:10:44.683Z,2.80
2023-05-19T14:13:32.639Z,1.90
2023-05-19T14:16:09.772Z,2.90
2023-05-19T14:18:43.386Z,2.30
2023-05-19T14:21:16.746Z,1.63
2023-05-19T14:23:50.138Z,1.80
2023-05-19T14:26:24.829Z,2.33
2023-05-19T14:28:58.380Z,2.07
2023-05-19T14:31:33.663Z,1.83
2023-05-19T14:34:06.965Z,2.50
2023-05-19T14:36:40.337Z,2.33
2023-05-19T14:39:13.754Z,2.60
2023-05-19T14:41:47.161Z,2.20
2023-05-19T14:44:20.214Z,1.97
2023-05-19T14:46:53.506Z,1.73
2023-05-19T14:49:27.120Z,1.57
2023-05-19T14:52:00.458Z,3.40
2023-05-19T14:54:33.822Z,2.90
2023-05-19T14:57:08.074Z,1.80
2023-05-19T14:59:43.325Z,3.30
2023-05-19T15:02:16.618Z,2.87
2023-05-19T15:04:49.965Z,6.20
2023-05-19T15:07:24.577Z,2.00
2023-05-19T15:09:58.318Z,2.37
2023-05-19T15:12:31.711Z,1.97
2023-05-19T15:15:05.097Z,3.20
2023-05-19T15:17:38.424Z,3.43
2023-05-19T15:20:15.149Z,1.90
2023-05-19T15:22:48.545Z,1.90
2023-05-19T15:25:21.866Z,2.50
2023-05-19T15:27:55.379Z,2.67
2023-05-19T15:30:29.174Z,2.73
2023-05-19T15:33:02.506Z,3.00
2023-05-19T15:35:35.851Z,5.47
2023-05-19T15:38:09.166Z,10.80
2023-05-19T15:40:44.487Z,4.67
2023-05-19T15:43:17.901Z,3.80
2023-05-19T15:45:54.901Z,3.47
2023-05-19T15:48:29.006Z,2.10
2023-05-19T15:51:02.767Z,2.17
2023-05-19T15:53:36.356Z,3.80
2023-05-19T15:56:10.728Z,2.00
2023-05-19T15:58:44.235Z,1.67
2023-05-19T16:01:17.669Z,2.00
2023-05-19T16:03:51.599Z,2.47
2023-05-19T16:06:27.566Z,1.97
2023-05-19T16:09:01.231Z,1.73
2023-05-19T16:11:34.958Z,1.80
2023-05-19T16:14:08.176Z,1.83
2023-05-19T16:16:41.301Z,3.60
2023-05-19T16:19:14.941Z,1.97
2023-05-19T16:21:48.604Z,2.10
2023-05-19T16:24:22.122Z,2.17
2023-05-19T16:26:55.454Z,6.03
2023-05-19T16:29:28.793Z,2.90
2023-05-19T16:32:01.860Z,1.77
2023-05-19T16:34:35.583Z,1.80
2023-05-19T16:37:10.018Z,2.07
2023-05-19T16:39:43.734Z,1.90
2023-05-19T16:42:17.064Z,1.93
2023-05-19T16:44:50.351Z,2.00
2023-05-19T16:47:23.376Z,1.70
2023-05-19T16:49:56.751Z,1.90
2023-05-19T16:52:30.145Z,1.80
2023-05-19T16:55:03.535Z,1.60
2023-05-19T16:57:36.874Z,1.67
2023-05-19T17:00:14.276Z,1.97
2023-05-19T17:02:47.834Z,1.80
2023-05-19T17:05:21.250Z,1.83
2023-05-19T17:07:54.657Z,1.67
2023-05-19T17:10:28.104Z,2.00
2023-05-19T17:13:01.377Z,1.70
2023-05-19T17:15:34.935Z,1.90
2023-05-19T17:18:08.007Z,2.10
2023-05-19T17:20:41.646Z,1.90
2023-05-19T17:23:15.125Z,1.90
2023-05-19T17:25:48.496Z,1.90
2023-05-19T17:28:22.800Z,1.60
2023-05-19T17:30:56.106Z,1.77
2023-05-19T17:33:29.379Z,1.67
2023-05-19T17:36:05.326Z,1.60
2023-05-19T17:38:40.409Z,1.70
2023-05-19T17:41:14.280Z,1.90
2023-05-19T17:43:48.430Z,2.00
2023-05-19T17:46:21.747Z,2.00
2023-05-19T17:48:55.554Z,1.80
2023-05-19T17:51:32.080Z,1.77
2023-05-19T17:54:08.558Z,1.90
2023-05-19T17:56:48.234Z,1.93
2023-05-19T17:59:22.829Z,1.70
2023-05-19T18:01:58.236Z,1.97
2023-05-19T18:04:33.543Z,1.80
2023-05-19T18:07:09.985Z,1.97
2023-05-19T18:09:51.930Z,1.90
2023-05-19T18:12:25.356Z,1.70
2023-05-19T18:14:58.675Z,1.90
2023-05-19T18:17:31.971Z,1.80
2023-05-19T18:20:05.295Z,2.00
2023-05-19T18:22:38.670Z,1.93
2023-05-19T18:25:14.359Z,1.83
2023-05-19T18:27:48.016Z,1.70
2023-05-19T18:30:21.979Z,1.90
2023-05-19T18:32:55.402Z,1.67
2023-05-19T18:35:28.434Z,1.80
2023-05-19T18:38:02.403Z,1.50
2023-05-19T18:40:35.955Z,1.90
2023-05-19T18:43:09.481Z,1.70
2023-05-19T18:45:43.241Z,1.73
2023-05-19T18:48:16.537Z,1.40
2023-05-19T18:50:49.817Z,1.90
2023-05-19T18:53:23.662Z,1.60
2023-05-19T18:55:57.019Z,1.93
2023-05-19T18:58:30.415Z,1.70
2023-05-19T19:01:03.724Z,1.70
2023-05-19T19:03:37.040Z,1.70
2023-05-19T19:06:10.986Z,1.80
2023-05-19T19:08:44.651Z,1.53
2023-05-19T19:11:18.120Z,1.67
2023-05-19T19:13:55.364Z,1.70
2023-05-19T19:16:29.058Z,1.80
2023-05-19T19:19:02.407Z,1.60
2023-05-19T19:21:35.638Z,1.80
2023-05-19T19:24:10.118Z,2.03
2023-05-19T19:26:43.468Z,1.80
2023-05-19T19:29:18.144Z,1.70
2023-05-19T19:31:51.775Z,1.77
2023-05-19T19:34:25.079Z,2.00
2023-05-19T19:36:58.170Z,2.13
2023-05-19T19:39:31.464Z,2.00
2023-05-19T19:42:04.956Z,2.17
2023-05-19T19:44:38.360Z,1.93
2023-05-19T19:47:11.979Z,1.70
2023-05-19T19:49:46.082Z,1.80
2023-05-19T19:52:20.302Z,1.87
2023-05-19T19:54:53.642Z,2.17
2023-05-19T19:57:29.123Z,2.23
2023-05-19T20:00:08.289Z,1.80
2023-05-19T20:02:55.833Z,2.27
2023-05-19T20:05:38.013Z,2.00
2023-05-19T20:08:11.497Z,2.37
2023-05-19T20:10:46.763Z,2.20
2023-05-19T20:13:20.702Z,2.10
2023-05-19T20:15:54.061Z,1.93
2023-05-19T20:18:29.632Z,1.90
2023-05-19T20:21:02.994Z,2.20
2023-05-19T20:23:38.782Z,2.00
2023-05-19T20:26:13.392Z,2.00
2023-05-19T20:28:47.164Z,1.73
2023-05-19T20:31:21.400Z,1.90
2023-05-19T20:33:54.751Z,2.00
2023-05-19T20:36:28.135Z,1.90
2023-05-19T20:39:01.296Z,1.60
2023-05-19T20:41:34.541Z,2.30
2023-05-19T20:44:08.476Z,2.30
2023-05-19T20:46:42.130Z,2.07
2023-05-19T20:49:15.552Z,2.20
2023-05-19T20:51:48.974Z,2.33
2023-05-19T20:54:22.180Z,2.13
2023-05-19T20:56:55.972Z,1.73
2023-05-19T20:59:29.293Z,2.23
2023-05-19T21:02:02.707Z,2.20
2023-05-19T21:04:37.241Z,2.03
2023-05-19T21:07:11.130Z,2.10
2023-05-19T21:09:46.515Z,2.60
2023-05-19T21:12:23.748Z,2.67
2023-05-19T21:14:57.116Z,2.43
2023-05-19T21:17:30.415Z,2.17
2023-05-19T21:20:04.140Z,2.40
2023-05-19T21:22:37.526Z,2.13
2023-05-19T21:25:12.086Z,2.20
2023-05-19T21:27:46.608Z,1.63
2023-05-19T21:30:20.286Z,2.20
2023-05-19T21:32:53.990Z,1.97
2023-05-19T21:35:27.594Z,2.03
2023-05-19T21:38:11.941Z,1.70
2023-05-19T21:40:51.666Z,1.90
2023-05-19T21:43:25.045Z,2.20
2023-05-19T21:45:58.516Z,1.67
2023-05-19T21:48:32.991Z,2.20
2023-05-19T21:51:07.305Z,1.93
2023-05-19T21:53:40.554Z,1.87
2023-05-19T21:56:14.426Z,2.03
2023-05-19T21:58:47.857Z,2.13
2023-05-19T22:01:22.215Z,2.00
2023-05-19T22:03:55.937Z,1.90
2023-05-19T22:06:29.753Z,2.10
2023-05-19T22:09:03.551Z,2.40
2023-05-19T22:11:37.350Z,2.20
2023-05-19T22:14:10.696Z,2.00
2023-05-19T22:16:44.132Z,2.20
2023-05-19T22:19:18.278Z,2.10
2023-05-19T22:21:58.437Z,2.03
2023-05-19T22:24:35.896Z,2.40
2023-05-19T22:27:10.938Z,2.10
2023-05-19T22:29:44.539Z,2.20
2023-05-19T22:32:19.394Z,2.20
2023-05-19T22:34:52.767Z,2.10
2023-05-19T22:37:28.878Z,2.43
2023-05-19T22:40:02.387Z,2.10
2023-05-19T22:42:35.371Z,2.30
2023-05-19T22:45:10.696Z,2.23
2023-05-19T22:47:44.092Z,2.47
2023-05-19T22:50:17.761Z,2.17
2023-05-19T22:52:51.047Z,2.40
2023-05-19T22:55:24.284Z,2.30
2023-05-19T22:57:57.511Z,2.20
2023-05-19T23:00:30.889Z,2.50
2023-05-19T23:03:04.658Z,1.90
2023-05-19T23:05:37.998Z,2.30
2023-05-19T23:08:12.230Z,2.40
2023-05-19T23:10:45.530Z,1.90
2023-05-19T23:13:20.065Z,2.17
2023-05-19T23:15:53.935Z,2.10
2023-05-19T23:18:27.350Z,2.80
2023-05-19T23:21:00.664Z,2.50
2023-05-19T23:23:35.855Z,2.30
2023-05-19T23:26:09.145Z,2.47
2023-05-19T23:28:42.665Z,2.50
2023-05-19T23:31:15.976Z,2.80
2023-05-19T23:33:49.429Z,2.30
2023-05-19T23:36:23.429Z,2.77
2023-05-19T23:38:56.696Z,2.83
2023-05-19T23:41:29.941Z,2.80
2023-05-19T23:44:03.159Z,2.80
2023-05-19T23:46:36.523Z,2.90
2023-05-19T23:49:10.198Z,2.70
2023-05-19T23:51:43.499Z,2.43
2023-05-19T23:54:16.741Z,3.00
2023-05-19T23:56:50.014Z,2.90
2023-05-19T23:59:23.215Z,2.73
